createdAt,value
2022-10-13T00:02:44.603Z,13.01
2022-10-13T00:12:44.912Z,12.79
2022-10-13T00:22:44.951Z,12.97
2022-10-13T00:32:45.269Z,12.95
2022-10-13T00:42:45.289Z,12.89
2022-10-13T00:52:45.635Z,12.86
2022-10-13T01:02:45.670Z,12.72
2022-10-13T01:12:45.966Z,12.38
2022-10-13T01:22:45.999Z,12.04
2022-10-13T01:32:46.315Z,11.99
2022-10-13T01:42:46.337Z,11.90
2022-10-13T01:52:46.684Z,11.60
2022-10-13T02:02:46.711Z,11.61
2022-10-13T02:12:47.040Z,11.55
2022-10-13T02:22:47.059Z,11.54
2022-10-13T02:32:47.372Z,11.40
2022-10-13T02:42:47.386Z,10.94
2022-10-13T02:52:47.716Z,11.07
2022-10-13T03:02:47.734Z,11.32
2022-10-13T03:12:48.063Z,11.61
2022-10-13T03:22:49.916Z,11.19
2022-10-13T03:32:48.311Z,10.82
2022-10-13T03:42:48.341Z,10.71
2022-10-13T03:52:48.664Z,10.61
2022-10-13T04:02:48.693Z,10.64
2022-10-13T04:12:49.015Z,10.32
2022-10-13T04:22:49.037Z,10.27
2022-10-13T04:32:49.370Z,10.44
2022-10-13T04:42:49.387Z,10.36
2022-10-13T04:52:49.722Z,10.38
2022-10-13T05:02:49.769Z,10.41
2022-10-13T05:12:50.060Z,10.22
2022-10-13T05:22:50.088Z,10.01
2022-10-13T05:32:53.851Z,10.53
2022-10-13T05:42:50.517Z,10.67
2022-10-13T05:52:50.764Z,10.73
2022-10-13T06:02:50.995Z,10.52
2022-10-13T06:12:51.332Z,10.47
2022-10-13T06:22:51.440Z,10.91
2022-10-13T06:32:51.768Z,11.24
2022-10-13T06:42:51.586Z,11.44
2022-10-13T06:52:51.914Z,11.75
2022-10-13T07:02:51.950Z,12.10
2022-10-13T07:12:52.264Z,12.28
2022-10-13T07:22:52.296Z,12.49
2022-10-13T07:32:52.656Z,12.87
2022-10-13T07:42:52.686Z,13.26
2022-10-13T07:52:52.967Z,13.87
2022-10-13T08:02:52.988Z,13.79
2022-10-13T08:12:53.318Z,13.78
2022-10-13T08:22:53.360Z,14.61
2022-10-13T08:32:53.671Z,15.21
2022-10-13T08:42:58.080Z,15.74
2022-10-13T08:52:54.956Z,15.89
2022-10-13T09:02:54.294Z,15.92
2022-10-13T09:12:54.316Z,16.11
2022-10-13T09:22:54.641Z,15.93
2022-10-13T09:32:54.657Z,16.15
2022-10-13T09:42:54.995Z,16.48
2022-10-13T09:52:55.047Z,16.68
2022-10-13T10:02:55.369Z,16.64
2022-10-13T10:12:55.449Z,16.91
2022-10-13T10:22:55.693Z,17.12
2022-10-13T10:32:55.714Z,17.22
2022-10-13T10:42:56.036Z,17.19
2022-10-13T10:52:56.063Z,17.34
2022-10-13T11:02:56.395Z,17.26
2022-10-13T11:12:56.428Z,17.44
2022-10-13T11:22:56.735Z,17.52
2022-10-13T11:32:56.755Z,17.70
2022-10-13T11:42:59.267Z,17.93
2022-10-13T11:52:57.086Z,18.65
2022-10-13T12:02:57.370Z,19.48
2022-10-13T12:12:57.415Z,18.92
2022-10-13T12:22:57.686Z,18.85
2022-10-13T12:32:57.725Z,18.50
2022-10-13T12:42:58.134Z,19.40
2022-10-13T12:52:58.170Z,20.55
2022-10-13T13:02:59.589Z,20.18
2022-10-13T13:12:58.615Z,19.29
2022-10-13T13:22:58.949Z,19.37
2022-10-13T13:32:58.982Z,18.92
2022-10-13T13:42:59.311Z,18.87
2022-10-13T13:52:59.330Z,19.56
2022-10-13T14:02:59.697Z,19.23
2022-10-13T14:12:59.720Z,19.06
2022-10-13T14:23:00.081Z,19.07
2022-10-13T14:33:00.090Z,18.88
2022-10-13T14:43:00.560Z,18.37
2022-10-13T14:53:00.571Z,18.11
2022-10-13T15:03:02.950Z,18.00
2022-10-13T15:13:00.984Z,18.02
2022-10-13T15:23:01.241Z,17.86
2022-10-13T15:33:01.470Z,17.79
2022-10-13T15:43:01.800Z,17.58
2022-10-13T15:53:01.894Z,17.38
2022-10-13T16:03:02.051Z,17.03
2022-10-13T16:13:02.075Z,17.01
2022-10-13T16:23:02.392Z,16.97
2022-10-13T16:33:02.411Z,16.66
2022-10-13T16:43:02.743Z,16.60
2022-10-13T16:53:02.770Z,16.42
2022-10-13T17:03:03.099Z,16.24
2022-10-13T17:13:03.118Z,16.45
2022-10-13T17:23:03.681Z,16.61
2022-10-13T17:33:04.679Z,16.28
2022-10-13T17:43:03.917Z,16.58
2022-10-13T17:53:04.859Z,16.27
2022-10-13T18:03:04.469Z,15.64
2022-10-13T18:13:06.066Z,15.67
2022-10-13T18:23:05.454Z,15.56
2022-10-13T18:33:05.104Z,15.28
2022-10-13T18:43:05.177Z,15.19
2022-10-13T18:53:05.071Z,15.16
2022-10-13T19:03:05.678Z,15.16
2022-10-13T19:13:06.184Z,15.02
2022-10-13T19:23:05.817Z,14.73
2022-10-13T19:33:05.965Z,14.61
2022-10-13T19:43:06.174Z,14.57
2022-10-13T19:53:06.313Z,14.37
2022-10-13T20:03:06.500Z,14.03
2022-10-13T20:13:06.391Z,13.81
2022-10-13T20:23:06.709Z,13.82
2022-10-13T20:33:06.971Z,13.77
2022-10-13T20:43:06.839Z,13.57
2022-10-13T20:53:07.066Z,13.44
2022-10-13T21:03:07.400Z,13.60
2022-10-13T21:13:07.426Z,13.29
2022-10-13T21:23:07.748Z,13.25
2022-10-13T21:33:07.921Z,13.20
2022-10-13T21:43:07.998Z,13.28
2022-10-13T21:53:08.024Z,13.32
2022-10-13T22:03:08.350Z,13.29
2022-10-13T22:13:08.393Z,13.33
2022-10-13T22:23:08.691Z,13.28
2022-10-13T22:33:08.735Z,13.32
2022-10-13T22:43:09.041Z,13.26
2022-10-13T22:53:09.057Z,13.26
2022-10-13T23:03:09.439Z,13.29
2022-10-13T23:13:09.429Z,13.26
2022-10-13T23:23:09.742Z,13.26
2022-10-13T23:33:09.766Z,13.26
2022-10-13T23:43:10.104Z,13.26
2022-10-13T23:53:10.135Z,13.25
